createdAt,value
2019-05-28T00:00:43.219Z,14.27
2019-05-28T00:03:10.983Z,14.27
2019-05-28T00:05:38.746Z,14.20
2019-05-28T00:08:06.536Z,14.21
2019-05-28T00:10:34.583Z,14.16
2019-05-28T00:13:02.342Z,14.16
2019-05-28T00:15:30.439Z,14.20
2019-05-28T00:17:58.407Z,14.21
2019-05-28T00:20:26.168Z,14.17
2019-05-28T00:22:53.958Z,14.16
2019-05-28T00:25:25.726Z,14.17
2019-05-28T00:27:51.556Z,14.16
2019-05-28T00:30:20.924Z,14.16
2019-05-28T00:32:48.964Z,14.12
2019-05-28T00:35:17.704Z,14.14
2019-05-28T00:37:45.494Z,14.16
2019-05-28T00:40:13.689Z,14.15
2019-05-28T00:42:41.452Z,14.12
2019-05-28T00:45:09.411Z,14.02
2019-05-28T00:47:37.247Z,13.99
2019-05-28T00:50:05.806Z,13.99
2019-05-28T00:52:33.587Z,13.98
2019-05-28T00:55:01.424Z,13.94
2019-05-28T00:57:29.191Z,13.96
2019-05-28T00:59:56.980Z,13.93
2019-05-28T01:02:24.736Z,13.95
2019-05-28T01:04:52.521Z,13.91
2019-05-28T01:07:20.291Z,13.92
2019-05-28T01:09:48.064Z,13.85
2019-05-28T01:12:15.914Z,13.89
2019-05-28T01:14:43.691Z,13.92
2019-05-28T01:17:11.458Z,13.92
2019-05-28T01:19:39.565Z,13.94
2019-05-28T01:22:07.644Z,13.93
2019-05-28T01:24:35.411Z,13.95
2019-05-28T01:27:03.176Z,13.97
2019-05-28T01:29:31.118Z,13.99
2019-05-28T01:31:58.879Z,13.99
2019-05-28T01:34:26.650Z,13.98
2019-05-28T01:36:54.748Z,13.98
2019-05-28T01:39:22.506Z,13.97
2019-05-28T01:41:50.265Z,13.96
2019-05-28T01:44:18.631Z,13.97
2019-05-28T01:46:46.444Z,13.96
2019-05-28T01:49:14.472Z,13.98
2019-05-28T01:51:42.261Z,13.98
2019-05-28T01:54:10.297Z,13.96
2019-05-28T01:56:38.053Z,13.98
2019-05-28T01:59:05.825Z,13.97
2019-05-28T02:01:33.592Z,13.96
2019-05-28T02:04:01.351Z,13.97
2019-05-28T02:06:29.421Z,13.96
2019-05-28T02:08:57.184Z,13.95
2019-05-28T02:11:24.948Z,13.97
2019-05-28T02:13:53.159Z,14.00
2019-05-28T02:16:20.922Z,14.01
2019-05-28T02:18:48.706Z,13.99
2019-05-28T02:21:16.487Z,13.98
2019-05-28T02:23:44.245Z,13.98
2019-05-28T02:26:12.130Z,13.98
2019-05-28T02:28:40.619Z,13.97
2019-05-28T02:31:08.374Z,13.97
2019-05-28T02:33:36.134Z,13.97
2019-05-28T02:36:04.319Z,13.93
2019-05-28T02:38:32.091Z,13.93
2019-05-28T02:41:00.075Z,13.90
2019-05-28T02:43:28.022Z,13.93
2019-05-28T02:45:55.862Z,13.93
2019-05-28T02:48:23.666Z,13.91
2019-05-28T02:50:56.554Z,13.90
2019-05-28T02:53:24.414Z,13.92
2019-05-28T02:55:52.194Z,13.92
2019-05-28T02:58:20.058Z,13.89
2019-05-28T03:00:47.813Z,13.88
2019-05-28T03:03:15.570Z,13.87
2019-05-28T03:05:43.364Z,13.84
2019-05-28T03:08:11.190Z,13.82
2019-05-28T03:11:01.430Z,13.84
2019-05-28T03:13:09.140Z,13.86
2019-05-28T03:15:38.541Z,13.91
2019-05-28T03:18:06.654Z,13.93
2019-05-28T03:20:34.510Z,13.84
2019-05-28T03:23:02.269Z,13.91
2019-05-28T03:25:30.033Z,14.01
2019-05-28T03:27:57.807Z,14.06
2019-05-28T03:30:25.573Z,14.08
2019-05-28T03:32:53.334Z,14.01
2019-05-28T03:35:21.636Z,14.08
2019-05-28T03:37:49.403Z,13.99
2019-05-28T03:40:19.342Z,14.00
2019-05-28T03:42:47.131Z,14.06
2019-05-28T03:45:15.250Z,14.09
2019-05-28T03:47:43.018Z,14.11
2019-05-28T03:50:10.898Z,14.15
2019-05-28T03:52:38.662Z,14.20
2019-05-28T03:55:06.437Z,14.13
2019-05-28T03:57:34.564Z,14.06
2019-05-28T04:00:02.325Z,14.07
2019-05-28T04:02:30.568Z,14.01
2019-05-28T04:04:58.352Z,13.98
2019-05-28T04:07:26.118Z,14.00
2019-05-28T04:09:53.882Z,14.00
2019-05-28T04:12:21.676Z,14.07
2019-05-28T04:14:49.447Z,14.07
2019-05-28T04:17:17.547Z,14.12
2019-05-28T04:19:45.683Z,14.12
2019-05-28T04:22:13.456Z,14.10
2019-05-28T04:24:41.220Z,14.08
2019-05-28T04:27:09.004Z,14.06
2019-05-28T04:29:36.779Z,14.14
2019-05-28T04:32:04.735Z,14.17
2019-05-28T04:34:32.863Z,14.23
2019-05-28T04:37:00.625Z,14.26
2019-05-28T04:39:28.395Z,14.27
2019-05-28T04:41:56.175Z,14.27
2019-05-28T04:44:23.965Z,14.31
2019-05-28T04:46:51.704Z,14.33
2019-05-28T04:49:19.796Z,14.40
2019-05-28T04:51:47.869Z,14.43
2019-05-28T04:54:15.928Z,14.42
2019-05-28T04:56:43.708Z,14.41
2019-05-28T04:59:11.462Z,14.40
2019-05-28T05:01:39.561Z,14.47
2019-05-28T05:04:07.342Z,14.58
2019-05-28T05:06:35.106Z,14.54
2019-05-28T05:09:02.944Z,14.44
2019-05-28T05:11:30.724Z,14.37
2019-05-28T05:13:58.744Z,14.38
2019-05-28T05:16:26.525Z,14.39
2019-05-28T05:18:54.299Z,14.48
2019-05-28T05:21:22.139Z,14.57
2019-05-28T05:23:50.536Z,14.69
2019-05-28T05:26:18.696Z,14.70
2019-05-28T05:28:46.481Z,14.72
2019-05-28T05:31:14.270Z,14.73
2019-05-28T05:33:42.560Z,14.78
2019-05-28T05:36:10.315Z,14.93
2019-05-28T05:38:38.079Z,14.99
2019-05-28T05:41:05.944Z,14.99
2019-05-28T05:43:33.727Z,15.19
2019-05-28T05:46:01.502Z,15.16
2019-05-28T05:48:29.289Z,15.18
2019-05-28T05:50:57.059Z,15.04
2019-05-28T05:53:24.824Z,14.97
2019-05-28T05:55:52.610Z,15.05
2019-05-28T05:58:20.376Z,15.24
2019-05-28T06:00:48.125Z,15.29
2019-05-28T06:03:15.903Z,15.28
2019-05-28T06:05:43.663Z,15.38
2019-05-28T06:08:11.508Z,15.24
2019-05-28T06:10:39.266Z,15.29
2019-05-28T06:13:07.029Z,15.44
2019-05-28T06:15:34.796Z,15.60
2019-05-28T06:18:02.718Z,15.45
2019-05-28T06:20:30.669Z,15.25
2019-05-28T06:22:58.508Z,15.18
2019-05-28T06:25:26.343Z,15.20
2019-05-28T06:27:54.104Z,15.51
2019-05-28T06:30:22.344Z,15.54
2019-05-28T06:32:50.135Z,15.41
2019-05-28T06:35:18.256Z,15.24
2019-05-28T06:37:46.024Z,15.12
2019-05-28T06:40:14.242Z,15.34
2019-05-28T06:42:42.068Z,15.26
2019-05-28T06:45:10.365Z,15.23
2019-05-28T06:47:38.142Z,15.34
2019-05-28T06:50:06.806Z,15.27
2019-05-28T06:52:34.567Z,15.19
2019-05-28T06:55:02.637Z,15.27
2019-05-28T06:57:30.412Z,15.04
2019-05-28T06:59:58.236Z,15.09
2019-05-28T07:02:26.355Z,15.03
2019-05-28T07:04:54.443Z,15.12
2019-05-28T07:07:22.192Z,15.14
2019-05-28T07:09:49.967Z,15.33
2019-05-28T07:12:18.380Z,15.24
2019-05-28T07:14:46.391Z,15.22
2019-05-28T07:17:14.255Z,15.40
2019-05-28T07:19:42.161Z,15.56
2019-05-28T07:22:09.971Z,15.88
2019-05-28T07:24:37.744Z,15.88
2019-05-28T07:27:05.506Z,15.89
2019-05-28T07:29:33.678Z,16.10
2019-05-28T07:32:01.452Z,16.34
2019-05-28T07:34:31.237Z,16.39
2019-05-28T07:36:58.766Z,16.57
2019-05-28T07:39:26.595Z,16.57
2019-05-28T07:41:54.363Z,16.39
2019-05-28T07:44:22.407Z,16.40
2019-05-28T07:46:50.195Z,16.01
2019-05-28T07:49:17.982Z,15.93
2019-05-28T07:51:45.733Z,15.46
2019-05-28T07:54:13.515Z,15.16
2019-05-28T07:56:41.275Z,14.97
2019-05-28T07:59:09.035Z,14.94
2019-05-28T08:01:36.824Z,14.87
2019-05-28T08:04:04.682Z,14.82
2019-05-28T08:06:32.443Z,14.90
2019-05-28T08:09:00.221Z,14.90
2019-05-28T08:11:28.063Z,15.04
2019-05-28T08:13:55.867Z,15.12
2019-05-28T08:16:24.390Z,15.31
2019-05-28T08:18:52.275Z,15.53
2019-05-28T08:21:20.046Z,15.69
2019-05-28T08:23:47.818Z,15.67
2019-05-28T08:26:15.587Z,15.74
2019-05-28T08:28:43.517Z,15.78
2019-05-28T08:31:17.308Z,15.88
2019-05-28T08:33:41.018Z,15.93
2019-05-28T08:36:08.857Z,16.00
2019-05-28T08:38:37.018Z,16.25
2019-05-28T08:41:04.785Z,16.16
2019-05-28T08:43:32.616Z,16.08
2019-05-28T08:46:00.493Z,16.26
2019-05-28T08:48:28.269Z,16.27
2019-05-28T08:50:56.120Z,16.31
2019-05-28T08:53:24.324Z,16.23
2019-05-28T08:55:52.100Z,16.19
2019-05-28T08:58:19.935Z,15.90
2019-05-28T09:00:47.721Z,15.93
2019-05-28T09:03:16.268Z,15.83
2019-05-28T09:05:44.104Z,15.90
2019-05-28T09:08:12.191Z,15.94
2019-05-28T09:10:40.092Z,16.02
2019-05-28T09:13:07.953Z,16.01
2019-05-28T09:15:36.671Z,16.01
2019-05-28T09:18:04.690Z,16.20
2019-05-28T09:20:32.896Z,16.58
2019-05-28T09:23:00.734Z,17.04
2019-05-28T09:25:29.539Z,17.64
2019-05-28T09:27:57.913Z,17.89
2019-05-28T09:30:25.913Z,18.03
2019-05-28T09:32:53.794Z,18.14
2019-05-28T09:35:22.075Z,18.11
2019-05-28T09:37:49.848Z,17.89
2019-05-28T09:40:17.607Z,17.73
2019-05-28T09:42:45.377Z,17.41
2019-05-28T09:45:22.616Z,17.11
2019-05-28T09:47:42.956Z,16.97
2019-05-28T09:50:29.167Z,16.83
2019-05-28T09:52:53.568Z,16.75
2019-05-28T09:55:09.821Z,16.69
2019-05-28T09:57:46.787Z,16.59
2019-05-28T10:00:07.390Z,16.45
2019-05-28T10:02:35.320Z,16.30
2019-05-28T10:05:03.151Z,16.29
2019-05-28T10:07:30.992Z,16.11
2019-05-28T10:09:58.800Z,16.03
2019-05-28T10:12:26.643Z,15.77
2019-05-28T10:14:54.475Z,15.72
2019-05-28T10:17:22.523Z,15.74
2019-05-28T10:19:50.370Z,15.79
2019-05-28T10:22:18.583Z,15.71
2019-05-28T10:24:46.331Z,15.82
2019-05-28T10:27:14.228Z,15.88
2019-05-28T10:29:42.437Z,15.93
2019-05-28T10:32:10.213Z,15.91
2019-05-28T10:34:38.039Z,15.96
2019-05-28T10:37:05.826Z,16.06
2019-05-28T10:39:33.601Z,16.18
2019-05-28T10:42:01.678Z,16.39
2019-05-28T10:44:29.472Z,16.62
2019-05-28T10:46:57.220Z,16.72
2019-05-28T10:49:25.093Z,16.68
2019-05-28T10:51:53.256Z,16.80
2019-05-28T10:54:21.019Z,16.95
2019-05-28T10:56:49.204Z,16.92
2019-05-28T10:59:17.002Z,17.23
2019-05-28T11:01:44.777Z,17.38
2019-05-28T11:04:12.554Z,17.61
2019-05-28T11:06:51.335Z,17.71
2019-05-28T11:09:10.289Z,17.84
2019-05-28T11:11:38.379Z,17.77
2019-05-28T11:14:06.312Z,18.08
2019-05-28T11:16:34.104Z,17.90
2019-05-28T11:19:01.891Z,18.08
2019-05-28T11:21:29.668Z,18.27
2019-05-28T11:23:57.431Z,18.51
2019-05-28T11:26:25.203Z,18.16
2019-05-28T11:28:52.979Z,18.34
2019-05-28T11:31:20.856Z,18.31
2019-05-28T11:33:49.048Z,18.28
2019-05-28T11:36:16.832Z,18.70
2019-05-28T11:38:44.656Z,18.72
2019-05-28T11:41:12.441Z,18.61
2019-05-28T11:43:40.240Z,18.84
2019-05-28T11:46:07.991Z,19.29
2019-05-28T11:48:35.852Z,19.54
2019-05-28T11:51:03.716Z,20.20
2019-05-28T11:53:31.767Z,20.47
2019-05-28T11:55:59.535Z,21.02
2019-05-28T11:58:27.632Z,21.29
2019-05-28T12:00:55.485Z,21.89
2019-05-28T12:03:23.326Z,22.38
2019-05-28T12:05:51.117Z,23.61
2019-05-28T12:08:18.873Z,24.41
2019-05-28T12:10:46.636Z,24.91
2019-05-28T12:13:14.512Z,24.47
2019-05-28T12:15:42.384Z,24.31
2019-05-28T12:18:10.218Z,23.97
2019-05-28T12:20:38.143Z,23.41
2019-05-28T12:23:11.553Z,22.97
2019-05-28T12:25:35.453Z,22.42
2019-05-28T12:28:03.432Z,21.90
2019-05-28T12:30:31.200Z,21.40
2019-05-28T12:32:58.972Z,21.18
2019-05-28T12:35:29.715Z,20.98
2019-05-28T12:37:56.244Z,20.93
2019-05-28T12:40:24.021Z,21.29
2019-05-28T12:42:51.804Z,21.13
2019-05-28T12:45:34.328Z,21.01
2019-05-28T12:48:07.365Z,20.73
2019-05-28T12:50:20.990Z,20.39
2019-05-28T12:52:49.491Z,20.06
2019-05-28T12:55:17.649Z,20.07
2019-05-28T12:57:45.587Z,20.13
2019-05-28T13:00:13.440Z,20.15
2019-05-28T13:02:41.331Z,20.09
2019-05-28T13:05:09.731Z,19.87
2019-05-28T13:07:37.501Z,19.81
2019-05-28T13:10:06.077Z,19.96
2019-05-28T13:12:33.986Z,19.50
2019-05-28T13:15:01.805Z,19.37
2019-05-28T13:17:29.886Z,18.51
2019-05-28T13:19:57.678Z,18.51
2019-05-28T13:22:25.432Z,18.42
2019-05-28T13:24:53.298Z,18.32
2019-05-28T13:27:21.371Z,18.79
2019-05-28T13:29:49.140Z,18.83
2019-05-28T13:32:16.980Z,19.33
2019-05-28T13:34:44.811Z,19.68
2019-05-28T13:37:12.635Z,19.64
2019-05-28T13:39:40.416Z,19.64
2019-05-28T13:42:08.532Z,19.48
2019-05-28T13:44:36.315Z,19.65
2019-05-28T13:47:04.233Z,19.72
2019-05-28T13:49:32.007Z,19.94
2019-05-28T13:52:11.538Z,20.07
2019-05-28T13:54:29.626Z,20.27
2019-05-28T13:56:57.395Z,20.03
2019-05-28T13:59:25.604Z,20.06
2019-05-28T14:01:53.401Z,19.99
2019-05-28T14:04:21.283Z,19.80
2019-05-28T14:06:49.161Z,19.41
2019-05-28T14:09:17.440Z,18.92
2019-05-28T14:11:45.209Z,18.39
2019-05-28T14:14:12.981Z,17.97
2019-05-28T14:16:40.740Z,17.56
2019-05-28T14:19:08.520Z,17.33
2019-05-28T14:21:36.277Z,17.24
2019-05-28T14:24:04.032Z,16.80
2019-05-28T14:26:31.816Z,16.43
2019-05-28T14:28:59.569Z,16.17
2019-05-28T14:31:27.371Z,16.05
2019-05-28T14:33:55.157Z,16.15
2019-05-28T14:36:22.914Z,16.58
2019-05-28T14:39:02.694Z,17.51
2019-05-28T14:41:20.184Z,18.37
2019-05-28T14:43:47.965Z,18.94
2019-05-28T14:46:15.712Z,19.07
2019-05-28T14:48:43.492Z,18.84
2019-05-28T14:51:11.244Z,18.54
2019-05-28T14:53:39.004Z,18.38
2019-05-28T14:56:07.122Z,18.23
2019-05-28T14:58:34.883Z,17.96
2019-05-28T15:01:02.928Z,17.80
2019-05-28T15:03:30.843Z,17.75
2019-05-28T15:05:58.603Z,17.65
2019-05-28T15:08:26.432Z,17.67
2019-05-28T15:10:54.206Z,17.64
2019-05-28T15:13:22.479Z,17.69
2019-05-28T15:15:50.237Z,17.87
2019-05-28T15:18:18.019Z,18.03
2019-05-28T15:20:45.861Z,18.16
2019-05-28T15:23:13.631Z,18.12
2019-05-28T15:25:41.412Z,17.47
2019-05-28T15:28:09.178Z,16.90
2019-05-28T15:30:36.940Z,16.38
2019-05-28T15:33:04.718Z,16.35
2019-05-28T15:35:32.494Z,16.35
2019-05-28T15:38:00.268Z,16.19
2019-05-28T15:40:28.358Z,16.14
2019-05-28T15:43:05.549Z,16.03
2019-05-28T15:45:26.025Z,15.98
2019-05-28T15:47:53.798Z,15.91
2019-05-28T15:50:21.682Z,15.78
2019-05-28T15:52:49.565Z,15.53
2019-05-28T15:55:17.439Z,15.35
2019-05-28T15:57:45.533Z,15.15
2019-05-28T16:00:15.596Z,15.05
2019-05-28T16:02:43.375Z,15.12
2019-05-28T16:05:11.150Z,15.13
2019-05-28T16:07:38.931Z,14.85
2019-05-28T16:10:06.924Z,14.81
2019-05-28T16:12:34.683Z,14.73
2019-05-28T16:15:02.440Z,14.67
2019-05-28T16:17:30.797Z,14.49
2019-05-28T16:19:58.563Z,14.47
2019-05-28T16:22:26.325Z,14.34
2019-05-28T16:24:54.110Z,14.54
2019-05-28T16:27:21.881Z,14.51
2019-05-28T16:29:49.638Z,14.47
2019-05-28T16:32:17.427Z,14.47
2019-05-28T16:34:45.198Z,14.37
2019-05-28T16:37:12.957Z,14.39
2019-05-28T16:39:40.740Z,14.35
2019-05-28T16:42:08.507Z,14.29
2019-05-28T16:44:36.274Z,14.37
2019-05-28T16:47:17.160Z,14.30
2019-05-28T16:49:33.638Z,14.17
2019-05-28T16:52:01.403Z,14.01
2019-05-28T16:54:29.239Z,14.01
2019-05-28T16:56:57.001Z,14.00
2019-05-28T16:59:24.784Z,13.98
2019-05-28T17:01:52.549Z,14.05
2019-05-28T17:04:20.346Z,14.20
2019-05-28T17:06:48.164Z,14.26
2019-05-28T17:09:15.944Z,14.27
2019-05-28T17:11:43.741Z,14.24
2019-05-28T17:14:11.552Z,14.28
2019-05-28T17:16:39.358Z,14.30
2019-05-28T17:19:07.126Z,14.30
2019-05-28T17:21:35.247Z,14.31
2019-05-28T17:24:03.032Z,14.33
2019-05-28T17:26:30.799Z,14.35
2019-05-28T17:28:58.627Z,14.36
2019-05-28T17:31:26.435Z,14.46
2019-05-28T17:33:54.257Z,14.42
2019-05-28T17:36:22.015Z,14.57
2019-05-28T17:38:49.802Z,14.72
2019-05-28T17:41:19.895Z,14.66
2019-05-28T17:43:47.039Z,14.72
2019-05-28T17:46:14.815Z,14.79
2019-05-28T17:48:42.588Z,14.75
2019-05-28T17:51:10.351Z,15.10
2019-05-28T17:53:38.206Z,14.73
2019-05-28T17:56:08.047Z,14.46
2019-05-28T17:58:35.474Z,14.39
2019-05-28T18:01:03.249Z,14.23
2019-05-28T18:03:31.057Z,14.00
2019-05-28T18:05:58.838Z,13.80
2019-05-28T18:08:29.320Z,13.74
2019-05-28T18:11:04.635Z,13.74
2019-05-28T18:13:28.435Z,13.66
2019-05-28T18:15:55.964Z,13.61
2019-05-28T18:18:23.732Z,13.98
2019-05-28T18:20:51.497Z,14.13
2019-05-28T18:23:19.275Z,13.91
2019-05-28T18:25:47.044Z,13.66
2019-05-28T18:28:14.995Z,13.64
2019-05-28T18:30:42.756Z,13.56
2019-05-28T18:33:10.528Z,13.61
2019-05-28T18:35:38.301Z,13.55
2019-05-28T18:38:06.153Z,13.56
2019-05-28T18:40:33.907Z,13.56
2019-05-28T18:43:01.671Z,13.47
2019-05-28T18:45:29.940Z,13.39
2019-05-28T18:47:57.763Z,13.38
2019-05-28T18:50:25.535Z,13.32
2019-05-28T18:52:53.331Z,13.32
2019-05-28T18:55:23.533Z,13.42
2019-05-28T18:57:51.120Z,13.40
2019-05-28T19:00:18.993Z,13.43
2019-05-28T19:02:46.855Z,13.42
2019-05-28T19:05:14.624Z,13.35
2019-05-28T19:07:42.414Z,13.35
2019-05-28T19:10:10.244Z,13.37
2019-05-28T19:12:38.022Z,13.25
2019-05-28T19:15:06.049Z,13.24
2019-05-28T19:17:34.324Z,13.13
2019-05-28T19:20:02.198Z,13.16
2019-05-28T19:22:30.325Z,13.18
2019-05-28T19:24:58.181Z,13.43
2019-05-28T19:27:26.054Z,13.33
2019-05-28T19:29:54.123Z,13.29
2019-05-28T19:32:21.895Z,13.21
2019-05-28T19:34:49.667Z,13.06
2019-05-28T19:37:17.474Z,13.06
2019-05-28T19:39:45.237Z,12.99
2019-05-28T19:42:13.004Z,12.99
2019-05-28T19:44:40.803Z,12.89
2019-05-28T19:47:08.587Z,12.86
2019-05-28T19:49:36.637Z,12.81
2019-05-28T19:52:04.564Z,12.78
2019-05-28T19:54:32.349Z,12.74
2019-05-28T19:57:00.133Z,12.71
2019-05-28T19:59:28.017Z,12.68
2019-05-28T20:01:55.771Z,12.67
2019-05-28T20:04:23.936Z,12.66
2019-05-28T20:06:51.760Z,12.61
2019-05-28T20:09:19.518Z,12.59
2019-05-28T20:11:47.308Z,12.61
2019-05-28T20:14:15.424Z,12.64
2019-05-28T20:16:43.229Z,12.66
2019-05-28T20:19:10.992Z,12.75
2019-05-28T20:21:38.772Z,12.77
2019-05-28T20:24:06.525Z,12.74
2019-05-28T20:26:34.488Z,12.73
2019-05-28T20:29:08.223Z,12.70
2019-05-28T20:31:31.853Z,12.86
2019-05-28T20:33:59.742Z,13.08
2019-05-28T20:36:27.527Z,12.87
2019-05-28T20:38:55.631Z,12.75
2019-05-28T20:41:23.409Z,12.66
2019-05-28T20:43:51.182Z,12.62
2019-05-28T20:46:18.939Z,12.66
2019-05-28T20:48:46.715Z,12.61
2019-05-28T20:51:21.524Z,12.57
2019-05-28T20:53:44.052Z,12.56
2019-05-28T20:56:11.878Z,12.53
2019-05-28T20:58:40.712Z,12.47
2019-05-28T21:01:08.641Z,12.42
2019-05-28T21:03:36.467Z,12.42
2019-05-28T21:06:04.620Z,12.40
2019-05-28T21:08:32.387Z,12.42
2019-05-28T21:11:00.194Z,12.38
2019-05-28T21:13:28.018Z,12.30
2019-05-28T21:15:56.786Z,12.28
2019-05-28T21:18:24.728Z,12.27
2019-05-28T21:20:53.597Z,12.22
2019-05-28T21:23:21.596Z,12.15
2019-05-28T21:25:50.034Z,12.10
2019-05-28T21:28:17.911Z,12.10
2019-05-28T21:30:45.686Z,12.12
2019-05-28T21:33:13.437Z,12.11
2019-05-28T21:35:41.362Z,12.08
2019-05-28T21:38:09.136Z,12.44
2019-05-28T21:40:37.285Z,12.24
2019-05-28T21:43:09.590Z,12.18
2019-05-28T21:45:34.821Z,12.10
2019-05-28T21:48:03.075Z,12.11
2019-05-28T21:50:31.029Z,12.00
2019-05-28T21:52:59.099Z,12.01
2019-05-28T21:55:26.935Z,12.33
2019-05-28T21:57:55.821Z,12.52
2019-05-28T22:00:28.991Z,12.23
2019-05-28T22:02:56.763Z,12.04
2019-05-28T22:05:24.821Z,11.91
2019-05-28T22:07:52.594Z,11.78
2019-05-28T22:10:20.367Z,11.70
2019-05-28T22:12:48.171Z,11.68
2019-05-28T22:15:15.934Z,11.61
2019-05-28T22:17:43.732Z,11.55
2019-05-28T22:20:11.581Z,11.51
2019-05-28T22:22:39.349Z,11.46
2019-05-28T22:25:07.220Z,11.46
2019-05-28T22:27:35.624Z,11.45
2019-05-28T22:30:04.772Z,11.43
2019-05-28T22:32:33.244Z,11.36
2019-05-28T22:35:02.069Z,11.32
2019-05-28T22:37:29.892Z,11.31
2019-05-28T22:39:59.256Z,11.27
2019-05-28T22:42:27.109Z,11.28
2019-05-28T22:44:54.890Z,11.24
2019-05-28T22:47:22.665Z,11.26
2019-05-28T22:49:50.476Z,11.22
2019-05-28T22:52:18.228Z,11.21
2019-05-28T22:54:46.000Z,11.17
2019-05-28T22:57:14.121Z,11.18
2019-05-28T22:59:41.952Z,11.09
2019-05-28T23:02:09.973Z,11.05
2019-05-28T23:04:37.756Z,10.99
2019-05-28T23:07:05.851Z,10.94
2019-05-28T23:09:33.625Z,10.99
2019-05-28T23:12:03.740Z,10.95
2019-05-28T23:14:31.683Z,10.87
2019-05-28T23:17:00.253Z,10.94
2019-05-28T23:19:28.443Z,10.91
2019-05-28T23:21:56.343Z,10.91
2019-05-28T23:24:24.091Z,10.87
2019-05-28T23:26:52.146Z,10.91
2019-05-28T23:29:20.191Z,10.89
2019-05-28T23:31:48.046Z,10.83
2019-05-28T23:34:15.956Z,10.78
2019-05-28T23:36:43.786Z,10.78
2019-05-28T23:39:11.552Z,10.75
2019-05-28T23:41:39.578Z,10.73
2019-05-28T23:44:07.590Z,10.75
2019-05-28T23:46:35.780Z,10.72
2019-05-28T23:49:04.112Z,10.69
2019-05-28T23:51:32.112Z,10.65
2019-05-28T23:53:59.876Z,10.64
2019-05-28T23:56:27.658Z,10.64
2019-05-28T23:58:55.415Z,10.62
